Time;durP1;ratioP1;P1;durP2;ratioP2;P2;SDS_P1;SDS_P2;PMS_P1;PMS_P2;Temp;Humidity;BMP_temperature;BMP_pressure;BME280_temperature;BME280_humidity;BME280_pressure;Samples;Min_cycle;Max_cycle;Signal;HPM_P1;HPM_P2
2022/05/27 00:00:26;;;;;;;6.20;2.63;;;15.20;1.00;;;;;;4991892;28;20406;-61
2022/05/27 00:02:57;;;;;;;6.28;2.80;;;15.00;99.90;;;;;;4992199;28;20395;-61
2022/05/27 00:05:33;;;;;;;7.10;2.75;;;14.90;1.00;;;;;;4991757;28;20573;-61
2022/05/27 00:08:14;;;;;;;6.13;2.50;;;14.80;49.40;;;;;;4992419;28;20441;-58
2022/05/27 00:10:45;;;;;;;6.50;2.80;;;14.70;99.90;;;;;;4991804;28;20714;-60
2022/05/27 00:13:41;;;;;;;7.88;2.90;;;14.70;99.90;;;;;;4987220;28;20920;-60
2022/05/27 00:16:19;;;;;;;7.38;2.80;;;14.70;99.90;;;;;;4971971;28;20396;-60
2022/05/27 00:18:50;;;;;;;6.63;2.65;;;14.60;1.00;;;;;;4973075;28;20999;-59
2022/05/27 00:21:39;;;;;;;9.68;2.95;;;14.70;99.90;;;;;;4972426;28;20392;-60
2022/05/27 00:24:19;;;;;;;6.78;2.90;;;14.70;40.40;;;;;;4963214;28;20497;-59
2022/05/27 00:26:55;;;;;;;6.80;2.65;;;14.60;99.90;;;;;;4972619;28;20432;-60
2022/05/27 00:29:24;;;;;;;6.30;2.88;;;14.60;99.90;;;;;;4971541;28;20571;-60
2022/05/27 00:32:12;;;;;;;6.43;3.10;;;14.60;1.00;;;;;;4972149;28;20564;-61
2022/05/27 00:35:01;;;;;;;7.00;2.80;;;14.50;1.00;;;;;;4972518;28;20384;-60
2022/05/27 00:37:29;;;;;;;7.25;2.85;;;14.40;42.80;;;;;;4972443;28;20388;-60
2022/05/27 00:39:57;;;;;;;11.20;3.10;;;14.40;99.90;;;;;;4972101;28;20404;-60
2022/05/27 00:42:46;;;;;;;6.87;2.70;;;14.30;99.90;;;;;;4971622;28;20396;-60
2022/05/27 00:45:42;;;;;;;9.13;3.60;;;14.30;1.00;;;;;;4970618;28;20424;-60
2022/05/27 00:48:37;;;;;;;5.90;2.60;;;14.20;1.00;;;;;;4965643;28;20403;-59
2022/05/27 00:51:33;;;;;;;6.70;2.88;;;14.20;1.00;;;;;;4970251;28;20388;-55
2022/05/27 00:54:14;;;;;;;6.50;2.70;;;14.20;53.30;;;;;;4971850;28;20441;-57
2022/05/27 00:57:04;;;;;;;7.35;3.00;;;14.20;1.00;;;;;;4971917;28;20797;-59
2022/05/27 01:00:08;;;;;;;7.32;2.80;;;14.20;1.00;;;;;;4971761;28;20531;-61
2022/05/27 01:03:12;;;;;;;7.30;2.80;;;14.30;1.00;;;;;;4971062;28;20487;-61
2022/05/27 01:05:53;;;;;;;7.25;2.88;;;14.20;1.00;;;;;;4971591;28;20416;-59
2022/05/27 01:08:32;;;;;;;6.95;3.10;;;14.20;1.00;;;;;;4971177;28;20440;-57
2022/05/27 01:12:02;;;;;;;7.55;3.03;;;14.20;1.00;;;;;;4986788;28;20436;-61
2022/05/27 01:14:43;;;;;;;6.32;3.03;;;14.10;1.00;;;;;;5010800;28;20442;-60
2022/05/27 01:17:22;;;;;;;6.10;2.60;;;14.10;99.90;;;;;;5009782;28;20771;-60
2022/05/27 01:20:18;;;;;;;7.90;3.40;;;14.00;99.90;;;;;;5010343;28;20807;-59
2022/05/27 01:23:15;;;;;;;7.63;3.30;;;14.00;1.00;;;;;;5010556;28;20829;-58
2022/05/27 01:26:05;;;;;;;6.85;2.72;;;13.90;35.20;;;;;;5010535;28;20434;-59
2022/05/27 01:28:57;;;;;;;7.80;3.20;;;13.90;99.90;;;;;;5010737;28;20516;-58
2022/05/27 01:32:16;;;;;;;7.03;2.90;;;13.90;99.90;;;;;;5009550;28;20389;-59
2022/05/27 01:35:13;;;;;;;8.00;3.05;;;13.90;1.00;;;;;;5010242;28;20405;-58
2022/05/27 01:37:51;;;;;;;7.60;2.90;;;13.80;1.00;;;;;;5002361;28;20499;-59
2022/05/27 01:40:31;;;;;;;5.90;2.85;;;13.80;1.00;;;;;;4989574;28;20533;-59
2022/05/27 01:43:23;;;;;;;7.80;2.90;;;13.80;18.40;;;;;;4990828;28;20456;-59
2022/05/27 01:46:02;;;;;;;7.07;3.23;;;13.90;1.00;;;;;;4990247;28;20394;-59
2022/05/27 01:48:35;;;;;;;7.33;3.00;;;13.90;1.00;;;;;;4990074;28;20502;-59
2022/05/27 01:51:15;;;;;;;7.63;2.88;;;14.00;1.00;;;;;;4990245;28;20390;-53
2022/05/27 01:53:49;;;;;;;6.40;2.90;;;14.00;99.90;;;;;;4990643;28;20437;-58
2022/05/27 01:56:23;;;;;;;6.40;2.85;;;14.00;99.90;;;;;;5001840;28;20416;-59
2022/05/27 01:59:13;;;;;;;7.72;2.80;;;14.00;1.00;;;;;;5009675;28;20392;-59
2022/05/27 02:01:46;;;;;;;8.07;2.72;;;14.00;99.90;;;;;;5009767;28;20439;-59
2022/05/27 02:04:30;;;;;;;7.90;3.13;;;13.90;99.90;;;;;;5008954;28;21078;-58
2022/05/27 02:07:17;;;;;;;6.68;2.70;;;13.80;1.00;;;;;;5009946;28;20388;-59
2022/05/27 02:10:13;;;;;;;6.60;3.28;;;13.80;1.00;;;;;;5009704;28;20441;-59
2022/05/27 02:16:34;;;;;;;6.80;3.10;;;13.80;1.00;;;;;;4955697;28;20400;-58
2022/05/27 02:19:20;;;;;;;7.03;3.17;;;13.80;1.00;;;;;;4970812;28;20433;-58
2022/05/27 02:21:47;;;;;;;6.40;3.00;;;13.80;99.90;;;;;;4970361;28;20400;-59
2022/05/27 02:24:20;;;;;;;7.37;2.67;;;13.80;99.90;;;;;;4969828;28;20416;-59
2022/05/27 02:26:53;;;;;;;8.07;3.30;;;13.80;99.90;;;;;;4970414;28;20504;-59
2022/05/27 02:29:29;;;;;;;7.50;2.90;;;13.80;99.90;;;;;;4970059;28;20421;-58
2022/05/27 02:32:01;;;;;;;7.55;3.15;;;13.70;99.90;;;;;;4969900;28;20578;-59
2022/05/27 02:35:09;;;;;;;6.90;2.80;;;13.70;99.90;;;;;;4970109;28;20400;-56
2022/05/27 02:38:02;;;;;;;7.53;3.08;;;13.70;99.90;;;;;;4966603;28;20392;-57
2022/05/27 02:41:08;;;;;;;6.85;3.08;;;13.60;1.00;;;;;;4969880;28;20469;-58
2022/05/27 02:43:49;;;;;;;7.97;3.13;;;13.70;1.00;;;;;;4929894;28;20973;-59
2022/05/27 02:46:38;;;;;;;8.38;3.00;;;13.60;1.00;;;;;;4969409;28;20429;-59
2022/05/27 02:49:31;;;;;;;6.90;3.03;;;13.60;1.00;;;;;;4970055;28;20476;-53
2022/05/27 02:52:26;;;;;;;6.65;3.10;;;13.60;1.00;;;;;;4969518;28;20391;-58
2022/05/27 02:55:24;;;;;;;6.60;2.88;;;13.60;1.00;;;;;;4968589;28;20400;-59
2022/05/27 02:58:31;;;;;;;6.28;2.83;;;13.60;1.00;;;;;;4970640;28;20396;-59
2022/05/27 03:01:04;;;;;;;6.25;2.70;;;13.70;1.00;;;;;;4968147;28;20492;-58
2022/05/27 03:03:29;;;;;;;6.90;2.80;;;13.80;99.90;;;;;;4969126;28;20446;-60
2022/05/27 03:06:07;;;;;;;6.03;2.60;;;13.80;1.00;;;;;;4970236;28;20392;-58
2022/05/27 03:08:59;;;;;;;7.50;2.92;;;13.80;1.00;;;;;;4970509;28;20415;-58
2022/05/27 03:12:05;;;;;;;6.88;2.70;;;13.90;99.90;;;;;;4981316;28;20445;-58
2022/05/27 03:15:09;;;;;;;6.20;2.88;;;13.90;99.90;;;;;;4993353;28;20456;-59
2022/05/27 03:18:07;;;;;;;6.68;3.20;;;14.00;99.90;;;;;;4992645;28;20482;-57
2022/05/27 03:20:59;;;;;;;7.70;2.90;;;13.90;99.90;;;;;;4993068;28;20417;-59
2022/05/27 03:24:04;;;;;;;7.10;2.83;;;13.80;99.90;;;;;;4992537;28;20410;-58
2022/05/27 03:26:55;;;;;;;7.53;2.80;;;13.70;1.00;;;;;;4992727;28;20432;-59
2022/05/27 03:29:44;;;;;;;8.40;2.90;;;13.70;22.40;;;;;;4992673;28;20398;-58
2022/05/27 03:32:28;;;;;;;7.10;2.90;;;13.70;93.40;;;;;;4980756;28;20406;-59
2022/05/27 03:35:23;;;;;;;7.50;3.10;;;13.70;99.90;;;;;;4992572;28;20771;-59
2022/05/27 03:38:07;;;;;;;9.38;3.13;;;13.70;99.90;;;;;;4992882;28;20522;-59
2022/05/27 03:41:30;;;;;;;7.90;3.50;;;13.70;99.90;;;;;;4992425;28;20386;-59
2022/05/27 03:44:28;;;;;;;7.43;3.23;;;13.70;99.90;;;;;;4913141;29;20543;-58
2022/05/27 03:46:58;;;;;;;7.45;3.20;;;13.80;99.90;;;;;;4890779;29;20405;-58
2022/05/27 03:49:41;;;;;;;7.35;3.20;;;13.80;99.90;;;;;;4912358;29;20400;-58
2022/05/27 03:52:30;;;;;;;7.23;3.57;;;13.70;99.90;;;;;;4912943;29;20428;-53
2022/05/27 03:55:14;;;;;;;7.60;3.60;;;13.70;99.90;;;;;;4941327;28;20426;-58
2022/05/27 03:57:51;;;;;;;7.05;3.45;;;13.60;99.90;;;;;;4992542;28;20530;-58
2022/05/27 04:00:30;;;;;;;7.88;3.40;;;13.60;99.90;;;;;;4991327;28;20756;-58
2022/05/27 04:02:59;;;;;;;7.40;3.37;;;13.70;99.90;;;;;;4992197;28;20544;-57
2022/05/27 04:05:25;;;;;;;11.25;3.90;;;13.70;1.00;;;;;;4991301;28;20400;-59
2022/05/27 04:07:57;;;;;;;9.23;3.63;;;13.80;99.90;;;;;;4990580;28;20497;-59
2022/05/27 04:10:36;;;;;;;7.35;3.45;;;13.90;99.90;;;;;;4991141;28;20385;-58
2022/05/27 04:13:13;;;;;;;9.77;3.22;;;14.00;99.90;;;;;;4992371;28;20442;-59
2022/05/27 04:15:39;;;;;;;8.00;3.90;;;14.00;99.90;;;;;;4991938;28;20428;-58
2022/05/27 04:18:04;;;;;;;7.32;3.55;;;14.00;99.90;;;;;;4992209;28;20393;-53
2022/05/27 04:20:33;;;;;;;10.67;3.53;;;14.10;99.90;;;;;;4990622;28;20705;-59
2022/05/27 04:25:38;;;;;;;8.47;3.90;;;14.20;99.90;;;;;;4991840;28;20410;-58
2022/05/27 04:28:04;;;;;;;7.93;3.80;;;14.40;99.90;;;;;;4991702;28;20457;-60
2022/05/27 04:30:29;;;;;;;7.73;3.50;;;14.50;21.40;;;;;;4991508;28;20391;-60
2022/05/27 04:32:55;;;;;;;9.07;3.00;;;14.50;1.00;;;;;;4992403;28;20481;-61
2022/05/27 04:35:46;;;;;;;9.77;2.65;;;14.70;99.90;;;;;;4991038;28;20746;-60
2022/05/27 04:38:27;;;;;;;8.45;3.80;;;14.60;99.90;;;;;;4990857;28;20772;-61
2022/05/27 04:41:09;;;;;;;6.55;3.20;;;14.60;1.00;;;;;;4990618;28;20417;-61
2022/05/27 04:43:43;;;;;;;6.70;2.70;;;14.60;1.00;;;;;;4991592;28;20896;-60
2022/05/27 04:46:27;;;;;;;7.85;2.70;;;14.80;99.90;;;;;;4991332;28;20468;-54
2022/05/27 04:52:17;;;;;;;7.75;2.70;;;15.10;99.90;;;;;;4991224;28;20397;-61
2022/05/27 04:54:57;;;;;;;6.00;2.80;;;15.40;1.00;;;;;;4991692;28;20433;-61
2022/05/27 04:57:42;;;;;;;7.30;2.95;;;16.30;1.00;;;;;;4984668;28;20410;-61
2022/05/27 05:00:58;;;;;;;7.85;3.20;;;16.90;1.00;;;;;;4989402;28;20406;-55
2022/05/27 05:03:24;;;;;;;7.00;3.10;;;17.00;1.00;;;;;;4936687;28;20417;-61
2022/05/27 05:05:58;;;;;;;6.30;2.72;;;16.70;1.00;;;;;;4991235;28;20481;-61
2022/05/27 05:08:43;;;;;;;7.18;2.90;;;16.40;1.00;;;;;;4990783;28;20441;-61
2022/05/27 05:11:14;;;;;;;9.73;3.05;;;16.30;1.00;;;;;;4988696;28;20870;-54
2022/05/27 05:13:58;;;;;;;6.78;3.20;;;16.30;99.90;;;;;;4988651;28;20922;-60
2022/05/27 05:16:50;;;;;;;10.57;3.40;;;16.30;99.90;;;;;;4990272;28;20409;-61
2022/05/27 05:22:45;;;;;;;6.85;3.40;;;16.10;99.90;;;;;;4982214;28;20386;-61
2022/05/27 05:25:19;;;;;;;9.27;3.00;;;15.90;1.00;;;;;;4980631;28;20441;-59
2022/05/27 05:27:57;;;;;;;10.48;3.50;;;15.90;1.00;;;;;;4990509;28;20426;-62
2022/05/27 05:30:40;;;;;;;8.18;3.50;;;16.00;1.00;;;;;;4989099;28;20402;-61
2022/05/27 05:33:34;;;;;;;11.82;3.80;;;15.90;99.90;;;;;;4989587;28;20400;-61
2022/05/27 05:36:10;;;;;;;8.45;3.60;;;15.90;99.90;;;;;;4990244;28;20399;-62
2022/05/27 05:38:54;;;;;;;7.45;3.78;;;15.70;99.90;;;;;;4987040;28;20422;-61
2022/05/27 05:41:33;;;;;;;8.57;4.30;;;15.70;99.90;;;;;;4989941;28;20558;-61
2022/05/27 05:44:00;;;;;;;13.63;4.50;;;15.70;99.90;;;;;;4990223;28;20901;-62
2022/05/27 05:46:26;;;;;;;8.32;3.92;;;15.60;1.00;;;;;;4989666;28;20457;-62
2022/05/27 05:48:55;;;;;;;9.65;4.38;;;15.70;48.60;;;;;;4989854;28;20910;-59
2022/05/27 05:51:21;;;;;;;10.23;4.20;;;15.60;99.90;;;;;;4989074;28;20449;-62
2022/05/27 05:53:47;;;;;;;8.95;4.10;;;15.70;99.90;;;;;;4990149;28;20403;-61
2022/05/27 05:56:13;;;;;;;11.55;4.20;;;15.80;1.00;;;;;;4987882;28;20891;-60
2022/05/27 05:58:39;;;;;;;10.15;4.82;;;15.70;81.50;;;;;;4989109;28;20402;-61
2022/05/27 06:01:05;;;;;;;10.48;4.80;;;15.70;1.00;;;;;;4990073;28;20950;-62
2022/05/27 06:03:30;;;;;;;10.60;4.43;;;15.80;1.00;;;;;;4987503;28;20422;-56
2022/05/27 06:05:56;;;;;;;10.00;4.27;;;15.90;1.00;;;;;;4984185;28;20421;-61
2022/05/27 06:08:22;;;;;;;9.63;4.20;;;16.10;1.00;;;;;;4989496;28;20405;-60
2022/05/27 06:10:48;;;;;;;10.23;4.10;;;15.90;1.00;;;;;;4994163;28;20409;-59
2022/05/27 06:13:14;;;;;;;9.45;4.30;;;15.90;99.90;;;;;;5009072;28;20495;-58
2022/05/27 06:15:41;;;;;;;9.45;4.10;;;15.80;99.90;;;;;;4996547;28;20493;-60
2022/05/27 06:18:07;;;;;;;9.18;4.35;;;15.70;99.90;;;;;;4992064;28;20461;-60
2022/05/27 06:20:35;;;;;;;8.57;4.30;;;15.70;99.90;;;;;;4988718;28;20418;-61
2022/05/27 06:23:04;;;;;;;11.30;4.10;;;15.80;99.90;;;;;;4990055;28;20398;-60
2022/05/27 06:25:30;;;;;;;8.77;3.88;;;15.70;99.90;;;;;;4988475;28;20999;-60
2022/05/27 06:34:23;;;;;;;9.87;3.80;;;15.70;2.10;;;;;;4990049;28;20388;-60
2022/05/27 06:36:11;;;;;;;8.88;3.72;;;15.70;99.90;;;;;;4988958;28;20382;-55
2022/05/27 06:38:37;;;;;;;10.63;4.10;;;15.90;1.00;;;;;;4989775;28;20394;-59
2022/05/27 06:41:04;;;;;;;9.32;3.70;;;15.90;99.90;;;;;;4989703;28;20422;-60
2022/05/27 06:43:31;;;;;;;10.50;4.00;;;15.90;99.90;;;;;;4989286;28;20743;-60
2022/05/27 06:45:58;;;;;;;8.93;3.70;;;15.90;4.10;;;;;;4993779;28;20391;-61
2022/05/27 06:48:23;;;;;;;10.00;3.50;;;15.70;99.90;;;;;;4993205;28;20383;-60
2022/05/27 06:50:49;;;;;;;8.90;3.77;;;15.80;99.90;;;;;;4993559;28;20393;-60
2022/05/27 06:53:15;;;;;;;8.67;4.33;;;15.90;1.00;;;;;;4992704;28;20391;-60
2022/05/27 06:55:40;;;;;;;8.40;4.05;;;15.90;1.00;;;;;;4993396;28;20860;-62
2022/05/27 06:58:06;;;;;;;8.90;3.70;;;15.80;99.90;;;;;;4993843;28;20386;-61
2022/05/27 07:00:31;;;;;;;8.83;3.50;;;15.70;99.90;;;;;;4992763;28;20462;-60
2022/05/27 07:02:57;;;;;;;9.83;3.13;;;15.90;77.20;;;;;;4993500;28;20441;-59
2022/05/27 07:05:24;;;;;;;8.13;3.70;;;15.70;99.90;;;;;;4992818;28;20410;-60
2022/05/27 07:07:50;;;;;;;8.50;3.60;;;15.70;1.00;;;;;;4992561;28;20689;-60
2022/05/27 07:10:16;;;;;;;7.15;3.20;;;15.90;99.90;;;;;;4992603;28;20406;-59
2022/05/27 07:12:42;;;;;;;7.27;3.63;;;15.80;1.00;;;;;;4993020;28;20424;-60
2022/05/27 07:15:08;;;;;;;7.28;3.28;;;15.70;99.90;;;;;;4993335;28;20405;-61
2022/05/27 07:17:35;;;;;;;7.68;3.20;;;15.80;99.90;;;;;;4992772;28;20397;-57
2022/05/27 07:20:03;;;;;;;6.70;2.90;;;15.90;1.00;;;;;;4993448;28;20448;-60
2022/05/27 07:22:28;;;;;;;7.57;3.40;;;15.90;1.00;;;;;;4992342;28;20391;-60
2022/05/27 07:24:54;;;;;;;9.70;3.40;;;15.80;99.90;;;;;;4993116;28;20432;-60
2022/05/27 07:27:20;;;;;;;7.70;3.00;;;16.00;99.90;;;;;;4992210;28;20382;-60
2022/05/27 07:29:45;;;;;;;7.50;3.80;;;16.00;1.00;;;;;;4993518;28;20387;-60
2022/05/27 07:32:11;;;;;;;9.07;3.40;;;16.00;1.00;;;;;;4992630;28;20549;-54
2022/05/27 07:34:37;;;;;;;8.20;3.85;;;15.90;99.90;;;;;;4992843;28;20387;-60
2022/05/27 07:37:04;;;;;;;7.00;3.40;;;15.70;1.50;;;;;;4992986;28;20456;-62
2022/05/27 07:39:29;;;;;;;8.73;3.27;;;15.70;99.90;;;;;;4992425;28;20409;-60
2022/05/27 07:41:55;;;;;;;10.10;3.05;;;15.70;99.90;;;;;;4992818;28;20386;-60
2022/05/27 07:44:20;;;;;;;7.53;3.22;;;15.70;1.00;;;;;;4992097;28;20410;-60
2022/05/27 07:46:46;;;;;;;7.87;3.87;;;15.60;1.00;;;;;;4992892;28;20876;-60
2022/05/27 07:49:12;;;;;;;8.20;4.17;;;15.70;1.00;;;;;;4992247;28;20379;-55
2022/05/27 07:51:38;;;;;;;8.20;3.60;;;15.80;99.90;;;;;;4992452;28;20398;-60
2022/05/27 07:54:03;;;;;;;11.60;3.90;;;15.90;99.90;;;;;;4992642;28;20398;-61
2022/05/27 07:56:29;;;;;;;9.20;4.00;;;16.20;95.00;;;;;;4991073;28;21075;-62
2022/05/27 07:58:55;;;;;;;10.35;4.20;;;16.30;1.00;;;;;;4992665;28;20457;-61
2022/05/27 08:01:20;;;;;;;10.10;3.93;;;16.20;99.90;;;;;;4991887;28;20873;-62
2022/05/27 08:03:46;;;;;;;7.20;3.60;;;16.20;1.00;;;;;;4992497;28;20469;-62
2022/05/27 08:06:14;;;;;;;7.25;3.40;;;16.20;1.00;;;;;;4992025;28;20917;-55
2022/05/27 08:08:39;;;;;;;8.27;3.80;;;16.30;1.00;;;;;;4992469;28;20394;-61
2022/05/27 08:11:06;;;;;;;7.93;3.70;;;16.20;1.00;;;;;;4992055;28;20422;-62
2022/05/27 08:13:33;;;;;;;9.20;3.70;;;16.20;1.00;;;;;;4984760;28;21029;-62
2022/05/27 08:15:59;;;;;;;9.30;3.80;;;16.20;1.00;;;;;;4973052;28;20445;-62
2022/05/27 08:18:24;;;;;;;8.40;3.63;;;16.20;99.90;;;;;;4971826;28;20384;-61
2022/05/27 08:20:50;;;;;;;8.50;3.33;;;16.10;99.90;;;;;;4972783;28;20392;-61
2022/05/27 08:23:16;;;;;;;8.87;4.00;;;16.20;99.90;;;;;;4971647;28;20423;-61
2022/05/27 08:25:42;;;;;;;7.70;3.25;;;16.40;54.20;;;;;;4972611;28;20388;-62
2022/05/27 08:28:08;;;;;;;9.10;3.80;;;16.80;1.00;;;;;;4972251;28;20818;-60
2022/05/27 08:30:37;;;;;;;6.95;3.15;;;17.00;99.90;;;;;;4970225;28;20384;-56
2022/05/27 08:33:03;;;;;;;9.93;3.70;;;17.00;99.90;;;;;;4968555;28;20404;-60
2022/05/27 08:38:20;;;;;;;8.15;3.15;;;17.10;40.20;;;;;;4968824;28;20474;-55
2022/05/27 08:40:57;;;;;;;8.55;3.75;;;17.20;97.80;;;;;;4971754;28;20443;-62
2022/05/27 08:43:41;;;;;;;8.70;3.40;;;16.80;99.90;;;;;;4971099;28;20407;-61
2022/05/27 08:46:12;;;;;;;11.63;4.30;;;16.40;99.90;;;;;;4972227;28;20746;-62
2022/05/27 08:48:41;;;;;;;10.10;4.00;;;16.40;1.00;;;;;;4971619;28;20393;-62
2022/05/27 08:51:21;;;;;;;8.45;3.70;;;16.40;1.00;;;;;;4972052;28;20385;-61
2022/05/27 08:53:56;;;;;;;8.10;4.00;;;16.20;99.90;;;;;;4971877;28;20395;-62
2022/05/27 08:59:39;;;;;;;6.60;3.38;;;16.60;99.90;;;;;;4971316;28;20439;-61
2022/05/27 09:02:27;;;;;;;7.10;3.10;;;16.90;1.00;;;;;;4971726;28;20439;-61
2022/05/27 09:05:15;;;;;;;6.90;3.50;;;17.00;1.00;;;;;;4971585;28;20412;-60
2022/05/27 09:07:43;;;;;;;8.18;3.20;;;17.20;1.00;;;;;;4971491;28;20393;-60
2022/05/27 09:10:37;;;;;;;8.40;2.90;;;17.50;99.90;;;;;;4971703;28;20479;-61
2022/05/27 09:13:17;;;;;;;7.00;3.30;;;17.40;99.90;;;;;;4964811;28;20408;-62
2022/05/27 09:15:47;;;;;;;7.03;3.00;;;17.70;99.90;;;;;;4990955;28;20484;-59
2022/05/27 09:18:18;;;;;;;7.90;3.10;;;17.90;99.90;;;;;;4990788;28;20402;-53
2022/05/27 09:21:02;;;;;;;6.82;3.20;;;17.80;92.50;;;;;;4991058;28;20417;-60
2022/05/27 09:23:55;;;;;;;9.40;3.20;;;18.00;70.90;;;;;;4989979;28;20414;-60
2022/05/27 09:26:23;;;;;;;8.05;3.10;;;18.00;13.90;;;;;;4990320;28;20928;-60
2022/05/27 09:29:12;;;;;;;9.90;3.30;;;17.70;1.00;;;;;;4990799;28;20864;-59
2022/05/27 09:31:44;;;;;;;6.50;3.10;;;17.50;1.00;;;;;;4990390;28;20437;-60
2022/05/27 09:34:12;;;;;;;8.45;3.00;;;17.40;1.00;;;;;;4990581;28;20399;-60
2022/05/27 09:36:49;;;;;;;7.60;3.13;;;17.40;4.00;;;;;;4990034;28;20469;-60
2022/05/27 09:39:20;;;;;;;8.20;3.20;;;17.50;1.00;;;;;;4989693;28;20490;-54
2022/05/27 09:42:16;;;;;;;9.13;3.38;;;17.60;7.60;;;;;;4989451;28;20745;-59
2022/05/27 09:44:48;;;;;;;7.30;3.13;;;17.50;4.50;;;;;;4990838;28;20436;-60
2022/05/27 09:47:15;;;;;;;8.25;4.20;;;17.40;29.40;;;;;;4990392;28;20951;-53
2022/05/27 09:49:41;;;;;;;7.53;3.00;;;17.30;18.40;;;;;;4990236;28;21180;-59
2022/05/27 09:52:07;;;;;;;8.88;3.15;;;17.40;45.70;;;;;;4990436;28;20477;-56
2022/05/27 09:54:44;;;;;;;7.80;3.40;;;17.60;56.30;;;;;;4989468;28;20452;-62
2022/05/27 09:57:10;;;;;;;7.10;3.40;;;17.80;12.80;;;;;;4990615;28;20457;-60
2022/05/27 09:59:37;;;;;;;7.90;3.40;;;17.90;1.00;;;;;;4989646;28;20482;-60
2022/05/27 10:02:26;;;;;;;7.80;3.50;;;17.90;1.00;;;;;;4990387;28;20387;-59
2022/05/27 10:05:02;;;;;;;9.23;3.25;;;18.10;1.00;;;;;;4982205;28;20415;-61
2022/05/27 10:08:00;;;;;;;6.20;2.90;;;18.10;1.00;;;;;;4989740;28;20399;-58
2022/05/27 10:10:35;;;;;;;9.52;2.90;;;17.90;1.00;;;;;;4977128;28;20900;-60
2022/05/27 10:13:30;;;;;;;9.15;3.45;;;18.10;1.00;;;;;;4987964;28;20703;-60
2022/05/27 10:16:11;;;;;;;8.80;3.20;;;18.40;1.00;;;;;;4968430;28;20459;-61
2022/05/27 10:18:39;;;;;;;7.50;2.92;;;19.10;1.00;;;;;;4969750;28;20482;-56
2022/05/27 10:21:12;;;;;;;8.70;3.00;;;20.10;1.00;;;;;;4970963;28;20400;-61
2022/05/27 10:23:44;;;;;;;6.75;2.90;;;20.30;99.90;;;;;;4969926;28;20419;-60
2022/05/27 10:26:29;;;;;;;5.90;2.60;;;20.40;99.90;;;;;;4970594;28;20488;-61
2022/05/27 10:29:10;;;;;;;6.97;2.97;;;20.20;99.90;;;;;;4970610;28;20389;-61
2022/05/27 10:31:36;;;;;;;9.40;3.00;;;19.40;99.90;;;;;;4970076;28;20391;-61
2022/05/27 10:34:02;;;;;;;7.20;3.03;;;18.80;99.90;;;;;;4970496;28;20423;-61
2022/05/27 10:36:34;;;;;;;6.95;2.78;;;18.70;99.90;;;;;;4969627;28;20389;-60
2022/05/27 10:39:06;;;;;;;6.75;2.85;;;19.00;99.90;;;;;;4970518;28;20404;-60
2022/05/27 10:41:43;;;;;;;7.55;3.30;;;19.00;99.90;;;;;;4969337;28;20564;-60
2022/05/27 10:44:38;;;;;;;7.28;3.05;;;19.10;99.90;;;;;;4970394;28;20409;-61
2022/05/27 10:47:12;;;;;;;7.55;3.25;;;19.30;99.90;;;;;;4970374;28;20412;-61
2022/05/27 10:50:01;;;;;;;8.18;3.75;;;19.20;99.90;;;;;;4969844;28;20396;-60
2022/05/27 10:52:45;;;;;;;7.80;3.60;;;19.00;99.90;;;;;;4942054;28;20396;-59
2022/05/27 10:55:45;;;;;;;6.80;3.20;;;19.10;99.90;;;;;;4970493;28;20817;-60
2022/05/27 11:02:07;;;;;;;8.80;2.80;;;19.60;99.90;;;;;;4969627;28;21277;-60
2022/05/27 11:04:37;;;;;;;8.15;2.90;;;19.90;99.90;;;;;;4968618;28;20507;-60
2022/05/27 11:07:31;;;;;;;6.00;2.50;;;20.30;99.90;;;;;;4970334;28;20400;-61
2022/05/27 11:10:48;;;;;;;7.63;2.20;;;20.30;99.90;;;;;;4970139;28;20503;-61
2022/05/27 11:16:38;;;;;;;7.70;2.22;;;21.20;99.90;;;;;;4969390;28;20412;-61
2022/05/27 11:19:45;;;;;;;5.67;2.20;;;21.70;99.90;;;;;;4969964;28;20479;-61
2022/05/27 11:22:17;;;;;;;6.60;2.00;;;21.50;99.90;;;;;;4942124;28;20392;-61
2022/05/27 11:25:22;;;;;;;7.85;2.30;;;21.80;99.90;;;;;;4969857;28;20448;-61
2022/05/27 11:28:03;;;;;;;7.13;2.30;;;21.30;99.90;;;;;;4952869;28;20751;-61
2022/05/27 11:30:29;;;;;;;6.65;2.40;;;20.70;99.90;;;;;;4969423;28;20452;-61
2022/05/27 11:33:14;;;;;;;6.00;1.90;;;21.10;99.90;;;;;;4973880;28;20396;-61
2022/05/27 11:36:10;;;;;;;6.70;2.20;;;21.40;99.90;;;;;;4972975;28;20451;-60
2022/05/27 11:38:44;;;;;;;6.30;2.30;;;21.00;99.90;;;;;;4972629;28;20408;-61
2022/05/27 11:41:28;;;;;;;7.50;2.35;;;21.00;99.90;;;;;;4973391;28;20449;-61
2022/05/27 11:44:18;;;;;;;5.30;1.95;;;20.70;99.90;;;;;;4973380;28;20430;-61
2022/05/27 11:47:14;;;;;;;5.30;2.10;;;21.00;99.90;;;;;;4973061;28;20384;-61
2022/05/27 11:49:54;;;;;;;5.80;2.33;;;21.30;99.90;;;;;;4972380;28;20389;-61
2022/05/27 11:52:37;;;;;;;7.45;2.25;;;21.10;99.90;;;;;;4972516;28;20730;-58
2022/05/27 11:55:18;;;;;;;7.25;2.15;;;20.80;99.90;;;;;;4973325;28;20483;-61
2022/05/27 11:58:02;;;;;;;5.30;1.65;;;20.60;99.90;;;;;;4972835;28;20400;-61
2022/05/27 12:00:34;;;;;;;5.55;1.80;;;20.70;99.90;;;;;;4972325;28;20427;-61
2022/05/27 12:03:11;;;;;;;5.00;1.70;;;21.10;99.90;;;;;;4973085;28;20380;-61
2022/05/27 12:05:47;;;;;;;5.50;2.00;;;21.50;99.90;;;;;;4972074;28;20380;-57
2022/05/27 12:08:33;;;;;;;7.40;2.05;;;21.60;99.90;;;;;;4973111;28;20400;-61
2022/05/27 12:11:28;;;;;;;6.20;1.95;;;21.30;99.90;;;;;;4978647;28;20749;-61
2022/05/27 12:13:58;;;;;;;5.82;2.00;;;21.60;99.90;;;;;;4988216;28;20852;-61
2022/05/27 12:16:31;;;;;;;5.67;1.83;;;22.00;99.90;;;;;;4992192;28;20469;-61
2022/05/27 12:19:16;;;;;;;5.30;2.00;;;22.30;99.90;;;;;;4992457;28;20398;-61
2022/05/27 12:22:01;;;;;;;7.13;2.22;;;22.20;99.90;;;;;;4991932;28;20458;-60
2022/05/27 12:24:34;;;;;;;4.90;1.60;;;21.50;99.90;;;;;;4991406;28;20470;-61
2022/05/27 12:27:02;;;;;;;6.68;1.90;;;21.10;99.90;;;;;;4992289;28;20390;-61
2022/05/27 12:29:29;;;;;;;5.95;1.80;;;21.20;99.90;;;;;;4990853;28;20397;-60
2022/05/27 12:31:57;;;;;;;6.38;1.75;;;21.10;99.90;;;;;;4992104;28;20385;-60
2022/05/27 12:34:28;;;;;;;5.60;1.70;;;20.90;99.90;;;;;;4991208;28;20864;-61
2022/05/27 12:36:55;;;;;;;6.37;2.30;;;20.90;99.90;;;;;;4990715;28;20888;-60
2022/05/27 12:39:26;;;;;;;6.60;2.30;;;21.00;99.90;;;;;;4990546;28;20398;-60
2022/05/27 12:42:07;;;;;;;6.80;2.20;;;21.20;99.90;;;;;;4991571;28;20449;-62
2022/05/27 12:44:33;;;;;;;6.28;2.20;;;21.20;99.90;;;;;;4990272;28;20443;-60
2022/05/27 12:47:01;;;;;;;8.20;2.50;;;20.90;99.90;;;;;;4991513;28;20390;-60
2022/05/27 12:49:37;;;;;;;5.60;1.92;;;20.70;99.90;;;;;;4990759;28;20467;-60
2022/05/27 12:52:27;;;;;;;5.90;2.00;;;20.80;99.90;;;;;;4991220;28;20402;-60
2022/05/27 12:54:53;;;;;;;7.10;2.40;;;20.80;99.90;;;;;;4991012;28;20405;-60
2022/05/27 13:03:33;;;;;;;8.48;2.72;;;21.00;99.90;;;;;;4991274;28;20381;-60
2022/05/27 13:06:05;;;;;;;6.70;2.40;;;20.80;99.90;;;;;;4991234;28;20395;-60
2022/05/27 13:08:42;;;;;;;7.65;2.40;;;20.80;99.90;;;;;;4990567;28;20509;-60
2022/05/27 13:11:41;;;;;;;8.18;2.30;;;20.90;99.90;;;;;;4990779;28;20434;-60
2022/05/27 13:14:24;;;;;;;6.40;2.20;;;20.80;99.90;;;;;;4990998;28;20398;-62
2022/05/27 13:17:21;;;;;;;8.80;2.10;;;20.70;99.90;;;;;;4991575;28;20841;-59
2022/05/27 13:19:59;;;;;;;6.53;1.80;;;20.70;99.90;;;;;;4990891;28;20379;-59
2022/05/27 13:23:06;;;;;;;5.70;2.15;;;20.70;99.90;;;;;;4990196;28;20390;-58
2022/05/27 13:25:39;;;;;;;6.10;2.10;;;20.70;99.90;;;;;;4989581;28;20772;-58
2022/05/27 13:28:11;;;;;;;5.70;2.10;;;20.90;99.90;;;;;;4991085;28;20386;-60
2022/05/27 13:30:49;;;;;;;6.07;2.27;;;20.80;99.90;;;;;;4990292;28;20400;-60
2022/05/27 13:33:17;;;;;;;6.63;1.85;;;20.90;99.90;;;;;;4989815;28;20812;-59
2022/05/27 13:35:46;;;;;;;5.50;2.10;;;20.70;99.90;;;;;;4990861;28;20386;-60
2022/05/27 13:38:20;;;;;;;5.82;2.20;;;20.90;99.90;;;;;;4990883;28;20430;-60
2022/05/27 13:40:47;;;;;;;5.80;2.00;;;21.00;99.90;;;;;;4990827;28;20856;-60
2022/05/27 13:43:24;;;;;;;6.70;2.30;;;21.20;99.90;;;;;;4990770;28;20394;-61
2022/05/27 13:45:58;;;;;;;7.28;2.00;;;21.30;99.90;;;;;;4990357;28;20868;-61
2022/05/27 13:48:32;;;;;;;6.82;2.50;;;20.90;99.90;;;;;;4989896;28;20387;-60
2022/05/27 13:51:11;;;;;;;6.30;2.27;;;21.00;99.90;;;;;;4990659;28;20379;-61
2022/05/27 13:53:38;;;;;;;5.85;2.10;;;20.80;99.90;;;;;;4989335;28;21144;-60
2022/05/27 13:56:12;;;;;;;7.00;2.00;;;21.20;99.90;;;;;;4990656;28;20489;-61
2022/05/27 13:58:50;;;;;;;5.43;1.90;;;21.20;99.90;;;;;;4989718;28;21031;-60
2022/05/27 14:01:20;;;;;;;5.78;1.60;;;20.80;99.90;;;;;;4990335;28;20379;-61
2022/05/27 14:04:17;;;;;;;5.88;1.80;;;20.60;99.90;;;;;;4990459;28;20415;-61
2022/05/27 14:06:43;;;;;;;6.03;1.67;;;20.40;99.90;;;;;;4989877;28;20438;-60
2022/05/27 14:09:16;;;;;;;6.35;1.80;;;20.20;99.90;;;;;;4990686;28;20485;-60
2022/05/27 14:11:55;;;;;;;5.10;1.20;;;20.20;99.90;;;;;;4989388;28;20919;-60
2022/05/27 14:14:42;;;;;;;6.40;1.80;;;19.90;99.90;;;;;;4989851;28;20398;-54
2022/05/27 14:17:13;;;;;;;6.45;2.00;;;20.00;99.90;;;;;;4990136;28;20451;-60
2022/05/27 14:19:38;;;;;;;5.97;1.93;;;20.10;99.90;;;;;;4989431;28;20382;-58
2022/05/27 14:25:19;;;;;;;7.18;2.00;;;19.70;99.90;;;;;;4977116;28;20517;-61